macs.co.at
Wetterdaten: aktuell Montag, 18.03.2019 18:45
Datum Zeit Temp. A. Feuchte A. Luftdruck Regen Wind Richtung Richtung Taupunkt Windchill Windben Empfang
18.03.2019 18:45 7,1 C 61 % 1019,5 hPa 0,0 l/m 17,8 km/h (3 Bft) W 263 0,1 C 4,0 C 32,2 km/h (5 Bft) 100 %
18.03.2019 17:45 7,3 C 63 % 1018,5 hPa 0,0 l/m 14,2 km/h (3 Bft) W 273 0,7 C 4,7 C 22,5 km/h (4 Bft) 100 %
18.03.2019 16:45 7,6 C 58 % 1017,9 hPa 0,0 l/m 17,0 km/h (3 Bft) W 259 -0,1 C 4,7 C 25,7 km/h (4 Bft) 100 %
18.03.2019 15:45 8,3 C 54 % 1017,6 hPa 0,0 l/m 14,5 km/h (3 Bft) W 261 -0,5 C 5,9 C 25,7 km/h (4 Bft) 100 %
18.03.2019 14:45 8,5 C 52 % 1017,3 hPa 0,0 l/m 18,3 km/h (3 Bft) W 261 -0,8 C 5,7 C 27,4 km/h (4 Bft) 100 %
18.03.2019 13:45 8,1 C 53 % 1017,1 hPa 0,0 l/m 21,3 km/h (4 Bft) W 268 -0,9 C 4,8 C 37,0 km/h (5 Bft) 100 %
18.03.2019 12:45 7,7 C 56 % 1017,5 hPa 0,0 l/m 20,6 km/h (4 Bft) W 269 -0,5 C 4,4 C 30,6 km/h (5 Bft) 99 %
18.03.2019 11:45 7,4 C 58 % 1017,5 hPa 0,0 l/m 13,2 km/h (3 Bft) W 269 -0,3 C 5,0 C 27,4 km/h (4 Bft) 100 %
18.03.2019 10:45 7,2 C 60 % 1017,0 hPa 0,0 l/m 26,0 km/h (4 Bft) W-SW 254 -0,0 C 3,3 C 40,2 km/h (6 Bft) 100 %
18.03.2019 09:45 6,9 C 61 % 1016,2 hPa 0,0 l/m 26,1 km/h (4 Bft) SW 221 -0,1 C 2,9 C 48,3 km/h (6 Bft) 99 %
18.03.2019 08:45 6,6 C 64 % 1016,2 hPa 0,0 l/m 27,9 km/h (4 Bft) W-SW 256 0,3 C 2,3 C 43,5 km/h (6 Bft) 100 %
18.03.2019 07:45 6,8 C 65 % 1015,3 hPa 0,0 l/m 22,4 km/h (4 Bft) W 267 0,7 C 3,1 C 45,1 km/h (6 Bft) 99 %
18.03.2019 06:45 6,8 C 67 % 1014,8 hPa 0,0 l/m 25,3 km/h (4 Bft) W-NW 293 1,1 C 2,8 C 37,0 km/h (5 Bft) 100 %
18.03.2019 05:45 7,1 C 66 % 1013,2 hPa 0,0 l/m 21,1 km/h (4 Bft) W 271 1,2 C 3,6 C 49,9 km/h (6 Bft) 100 %
18.03.2019 04:45 7,3 C 66 % 1012,4 hPa 0,0 l/m 32,5 km/h (5 Bft) W-SW 241 1,4 C 2,9 C 54,7 km/h (7 Bft) 97 %
18.03.2019 03:45 7,4 C 67 % 1012,2 hPa 0,0 l/m 22,8 km/h (4 Bft) SW 233 1,7 C 3,8 C 41,8 km/h (6 Bft) 100 %
18.03.2019 02:45 7,3 C 69 % 1011,9 hPa 0,0 l/m 25,6 km/h (4 Bft) W 271 2,0 C 3,4 C 48,3 km/h (6 Bft) 100 %
18.03.2019 01:45 7,8 C 68 % 1011,6 hPa 0,0 l/m 18,5 km/h (3 Bft) W-NW 302 2,3 C 4,8 C 41,8 km/h (6 Bft) 100 %
18.03.2019 00:45 8,6 C 69 % 1010,5 hPa 0,2 l/m 30,7 km/h (5 Bft) W-SW 253 3,2 C 4,7 C 57,9 km/h (7 Bft) 98 %
18.03.2019 00:00 10,2 C 63 % 1008,7 hPa 0,0 l/m 38,6 km/h (5 Bft) W-SW 242 3,5 C 10,2 C 61,2 km/h (7 Bft) 99 %
_ Min-Zeit 08:40 14:15 00:00 - 12:05 - - 14:25 08:35 12:05 00:50
Minimum _ 6,6 C 51 % 1008,7 hPa - 8,1 km/h (2 Bft) - - -1,2 C 2,1 C 14,5 km/h (3 Bft) 96 %
_ Max-Zeit 00:00 00:55 18:40 00:15 00:25 - - 00:00 00:00 00:25 00:10
Maximum _ 10,3 C 70 % 1019,6 hPa 0,2 l/m 44,3 km/h
W (6 Bft)
- - 3,5 C 10,2 C 75,6 km/h
W (9 Bft)
100 %
Durchschnitt _ 7,5 C 62 % 1015,3 hPa #0,2 l/m 22,5 km/h (4 Bft) W - 0,6 C 4,1 C 38,7 km/h (5 Bft) 100 %
© Marcus Schindler